Terminal Aerodrome Forecast
Issued by NWS

Home | Current Version | Previous Version | Text Only | Print | Product List | Glossary On
Versions: 1 2 3 4 5 6 7 8 9 10 11 12 13 14 15 16 17 18 19 20 21 22 23 24 25 26 27 28 29 30 31
004
FTUS44 KOHX 010529 CCA
TAFCKV
TAF COR
KCKV 010529Z 0106/0206 18013G18KT 6SM -SHRA VCTS BKN015CB OVC025
      TEMPO 0106/0108 2SM -SHRA OVC015
     FM010900 21011G17KT P6SM SCT220
     FM012000 24019G29KT P6SM BKN060=

USA.gov is the U.S. government's official web portal to all federal, state and local government web resources and services.